Hatsu Envoy — VSQL9 — position and weather

sailwx.info

Track history (hours):
 
Tides and Currents Weather Stations Pressure Air Temp Water Temp Dewpoint Dewpoint Depression Visibility Wind Speed Wind Dir Waves Ship Positions

Hatsu Envoy

Last reported at 2016-May-22 04:33 UTC. Time now 2016-May-25 07:17 UTC.
Position N 34°04' E 134°58'.

Type: Cargo ship. MMSI: 235414000.

Date/timePositionNaut miles runAvg speedWind from/ knotsBaromVisibWave heightAir tempDewpointWater temp
2016-May-22 04:33N 34°04' E 134°58'1514.7
2016-May-22 03:33N 34°18' E 134°59'1717.1
2016-May-22 02:33N 34°31' E 135°13'1212.4
2016-May-22 01:33N 34°39' E 135°24'0 0.2
2016-May-22 00:33N 34°39' E 135°24'0 0.0
2016-May-21 23:33N 34°39' E 135°24'0 0.0
2016-May-21 22:33N 34°39' E 135°24'0 0.0
2016-May-21 21:27N 34°39' E 135°24'0 0.0
2016-May-21 20:33N 34°39' E 135°24'0 0.0
2016-May-21 19:33N 34°39' E 135°24'0 0.0
2016-May-21 18:33N 34°39' E 135°24'0 0.0
2016-May-21 17:33N 34°39' E 135°24'0 0.0
2016-May-21 16:33N 34°39' E 135°24'0 0.0
2016-May-21 15:27N 34°39' E 135°24'0 0.0
2016-May-21 14:27N 34°39' E 135°24'0 0.1
2016-May-21 13:33N 34°39' E 135°24'10 9.8
2016-May-21 12:34N 34°33' E 135°15'1817.3
2016-May-21 11:33N 34°20' E 135°01'1212.2
2016-May-21 10:34N 34°08' E 134°60'1313.0
2016-May-21 09:33N 33°55' E 134°59'21216.3
2016-May-20 20:29N 34°34' E 139°12'2020.2
2016-May-20 19:31N 34°44' E 139°33'1717.9
2016-May-20 18:33N 34°60' E 139°40'1414.1
2016-May-20 17:33N 35°13' E 139°46'1212.4
2016-May-20 16:33N 35°25' E 139°44'1010.3
2016-May-20 15:33N 35°35' E 139°47'1 1.4
2016-May-20 14:32N 35°37' E 139°47'0 0.0
2016-May-20 13:32N 35°37' E 139°47'0 0.0
2016-May-20 12:32N 35°37' E 139°47'0 0.0
2016-May-20 11:32N 35°37' E 139°47'0 0.0
2016-May-20 10:32N 35°37' E 139°47'0 0.0
2016-May-20 09:32N 35°37' E 139°47'0 0.0
2016-May-20 08:32N 35°37' E 139°47'0 0.0
2016-May-20 07:32N 35°37' E 139°47'0 0.0
2016-May-20 06:32N 35°37' E 139°47'0 0.0
2016-May-20 05:32N 35°37' E 139°47'0 0.0
2016-May-20 04:32N 35°37' E 139°47'0 0.0
2016-May-20 03:29N 35°37' E 139°47'0 0.1
2016-May-20 02:32N 35°37' E 139°47'0 0.0
2016-May-20 01:32N 35°37' E 139°47'0 0.0
2016-May-20 00:29N 35°37' E 139°47'0 0.1
2016-May-19 23:33N 35°37' E 139°47'4 4.2
2016-May-19 22:33N 35°33' E 139°50'1010.3
2016-May-19 21:33N 35°24' E 139°46'1111.4
2016-May-19 20:33N 35°12' E 139°47'9 8.8
2016-May-19 19:33N 35°04' E 139°45'10 9.8
2016-May-19 18:33N 34°54' E 139°44'1414.4
2016-May-19 17:33N 34°50' E 140°01'1716.7
2016-May-19 16:33N 34°56' E 140°20'1717.6
2016-May-19 15:33N 35°07' E 140°37'1817.7
2016-May-19 14:34N 35°19' E 140°52'7618.6
2016-May-19 10:30N 36°14' E 141°57'4018.5
2016-May-19 08:22N 36°41' E 142°32'  
Track history (hours):
 
Tides and Currents Weather Stations Pressure Air Temp Water Temp Dewpoint Dewpoint Depression Visibility Wind Speed Wind Dir Waves Ship Positions

Hatsu Envoy

Last reported at 2016-May-22 04:33 UTC. Time now 2016-May-25 07:17 UTC.
Position N 34°04' E 134°58'.

Type: Cargo ship. MMSI: 235414000.

Date/timePositionNaut miles runAvg speedWind from/ knotsBaromVisibWave heightAir tempDewpointWater temp
2016-May-22 04:33N 34°04' E 134°58'1514.7
2016-May-22 03:33N 34°18' E 134°59'1717.1
2016-May-22 02:33N 34°31' E 135°13'1212.4
2016-May-22 01:33N 34°39' E 135°24'0 0.2
2016-May-22 00:33N 34°39' E 135°24'0 0.0
2016-May-21 23:33N 34°39' E 135°24'0 0.0
2016-May-21 22:33N 34°39' E 135°24'0 0.0
2016-May-21 21:27N 34°39' E 135°24'0 0.0
2016-May-21 20:33N 34°39' E 135°24'0 0.0
2016-May-21 19:33N 34°39' E 135°24'0 0.0
2016-May-21 18:33N 34°39' E 135°24'0 0.0
2016-May-21 17:33N 34°39' E 135°24'0 0.0
2016-May-21 16:33N 34°39' E 135°24'0 0.0
2016-May-21 15:27N 34°39' E 135°24'0 0.0
2016-May-21 14:27N 34°39' E 135°24'0 0.1
2016-May-21 13:33N 34°39' E 135°24'10 9.8
2016-May-21 12:34N 34°33' E 135°15'1817.3
2016-May-21 11:33N 34°20' E 135°01'1212.2
2016-May-21 10:34N 34°08' E 134°60'1313.0
2016-May-21 09:33N 33°55' E 134°59'21216.3
2016-May-20 20:29N 34°34' E 139°12'2020.2
2016-May-20 19:31N 34°44' E 139°33'1717.9
2016-May-20 18:33N 34°60' E 139°40'1414.1
2016-May-20 17:33N 35°13' E 139°46'1212.4
2016-May-20 16:33N 35°25' E 139°44'1010.3
2016-May-20 15:33N 35°35' E 139°47'1 1.4
2016-May-20 14:32N 35°37' E 139°47'0 0.0
2016-May-20 13:32N 35°37' E 139°47'0 0.0
2016-May-20 12:32N 35°37' E 139°47'0 0.0
2016-May-20 11:32N 35°37' E 139°47'0 0.0
2016-May-20 10:32N 35°37' E 139°47'0 0.0
2016-May-20 09:32N 35°37' E 139°47'0 0.0
2016-May-20 08:32N 35°37' E 139°47'0 0.0
2016-May-20 07:32N 35°37' E 139°47'0 0.0
2016-May-20 06:32N 35°37' E 139°47'0 0.0
2016-May-20 05:32N 35°37' E 139°47'0 0.0
2016-May-20 04:32N 35°37' E 139°47'0 0.0
2016-May-20 03:29N 35°37' E 139°47'0 0.1
2016-May-20 02:32N 35°37' E 139°47'0 0.0
2016-May-20 01:32N 35°37' E 139°47'0 0.0
2016-May-20 00:29N 35°37' E 139°47'0 0.1
2016-May-19 23:33N 35°37' E 139°47'4 4.2
2016-May-19 22:33N 35°33' E 139°50'1010.3
2016-May-19 21:33N 35°24' E 139°46'1111.4
2016-May-19 20:33N 35°12' E 139°47'9 8.8
2016-May-19 19:33N 35°04' E 139°45'10 9.8
2016-May-19 18:33N 34°54' E 139°44'1414.4
2016-May-19 17:33N 34°50' E 140°01'1716.7
2016-May-19 16:33N 34°56' E 140°20'1717.6
2016-May-19 15:33N 35°07' E 140°37'1817.7
2016-May-19 14:34N 35°19' E 140°52'7618.6
2016-May-19 10:30N 36°14' E 141°57'4018.5
2016-May-19 08:22N 36°41' E 142°32'  

Dump ship's entire track history